Time;durP1;ratioP1;P1;durP2;ratioP2;P2;SDS_P1;SDS_P2;PMS_P1;PMS_P2;Temp;Humidity;BMP_temperature;BMP_pressure;BME280_temperature;BME280_humidity;BME280_pressure;Samples;Min_cycle;Max_cycle;Signal;HPM_P1;HPM_P2
2023/01/29 00:00:47;;;;;;;8.90;8.70;;;-1.20;99.90;;;;;;6198164;23;20198;-85
2023/01/29 00:03:21;;;;;;;8.80;8.60;;;-1.20;99.90;;;;;;6199230;23;20213;-85
2023/01/29 00:05:52;;;;;;;8.77;8.57;;;-1.30;99.90;;;;;;6198404;23;20265;-85
2023/01/29 00:08:20;;;;;;;8.93;8.73;;;-1.30;99.90;;;;;;6199301;23;20221;-85
2023/01/29 00:10:56;;;;;;;8.80;8.60;;;-1.40;99.90;;;;;;6198684;23;20196;-85
2023/01/29 00:13:27;;;;;;;8.83;8.63;;;-1.30;99.90;;;;;;6201059;23;20289;-85
2023/01/29 00:16:05;;;;;;;8.97;8.77;;;-1.40;99.90;;;;;;6199637;23;20190;-84
2023/01/29 00:18:59;;;;;;;8.73;8.53;;;-1.50;99.90;;;;;;6199528;23;20693;-85
2023/01/29 00:21:49;;;;;;;8.60;8.40;;;-1.50;99.90;;;;;;6200727;23;20189;-86
2023/01/29 00:24:22;;;;;;;8.80;8.60;;;-1.40;99.90;;;;;;6190725;23;20213;-86
2023/01/29 00:26:49;;;;;;;8.57;8.37;;;-1.30;99.90;;;;;;6208210;23;20217;-85
2023/01/29 00:29:34;;;;;;;8.60;8.40;;;-1.40;99.90;;;;;;6211802;23;20204;-85
2023/01/29 00:32:13;;;;;;;8.70;8.50;;;-1.40;99.90;;;;;;6210257;23;20196;-85
2023/01/29 00:34:46;;;;;;;8.50;8.30;;;-1.50;99.90;;;;;;6217320;23;20183;-84
2023/01/29 00:37:29;;;;;;;8.43;8.23;;;-1.50;99.90;;;;;;6212839;23;20238;-85
2023/01/29 00:39:59;;;;;;;8.70;8.50;;;-1.60;99.90;;;;;;6208074;23;20199;-85
2023/01/29 00:48:56;;;;;;;9.30;9.00;;;-1.40;99.90;;;;;;6198432;23;20198;-87
2023/01/29 00:54:48;;;;;;;9.20;8.90;;;-1.40;99.90;;;;;;6201153;23;20206;-86
2023/01/29 00:57:22;;;;;;;8.90;8.70;;;-1.50;99.90;;;;;;6200344;23;20234;-86
2023/01/29 00:59:57;;;;;;;8.73;8.53;;;-1.40;99.90;;;;;;6199586;23;20197;-86
2023/01/29 01:05:31;;;;;;;8.80;8.60;;;-1.30;99.90;;;;;;6201319;23;20225;-86
2023/01/29 01:08:01;;;;;;;9.20;8.90;;;-1.30;99.90;;;;;;6199097;23;20257;-86
2023/01/29 01:10:33;;;;;;;8.70;8.50;;;-1.50;99.90;;;;;;6199753;23;20205;-86
2023/01/29 01:13:09;;;;;;;8.70;8.50;;;-1.50;99.90;;;;;;6199325;23;20200;-86
2023/01/29 01:15:45;;;;;;;9.00;8.80;;;-1.60;99.90;;;;;;6199803;23;20218;-86
2023/01/29 01:18:15;;;;;;;8.70;8.50;;;-1.60;99.90;;;;;;6198975;23;20201;-86
2023/01/29 01:20:50;;;;;;;8.67;8.47;;;-1.70;99.90;;;;;;6199253;23;20203;-86
2023/01/29 01:23:34;;;;;;;8.70;8.50;;;-1.70;99.90;;;;;;6199527;23;20201;-86
2023/01/29 01:26:01;;;;;;;8.63;8.43;;;-1.80;99.90;;;;;;6199924;23;20251;-86
2023/01/29 01:28:43;;;;;;;;;;;;;;;;;;;;;
2023/01/29 01:31:18;;;;;;;8.63;8.43;;;-1.70;99.90;;;;;;6200027;23;20201;-86
2023/01/29 01:33:53;;;;;;;8.90;8.70;;;-1.60;99.90;;;;;;6199408;23;20202;-86
2023/01/29 01:36:26;;;;;;;8.90;8.70;;;-1.60;99.90;;;;;;6205374;23;20215;-85
2023/01/29 01:39:12;;;;;;;9.10;8.80;;;-1.60;99.90;;;;;;6212600;23;20193;-85
2023/01/29 01:42:00;;;;;;;8.73;8.53;;;-1.70;99.90;;;;;;6200332;23;20214;-86
2023/01/29 01:44:57;;;;;;;8.70;8.50;;;-1.70;99.90;;;;;;6205463;23;20206;-86
2023/01/29 01:47:35;;;;;;;9.13;8.83;;;-1.70;99.90;;;;;;6206669;23;20248;-85
2023/01/29 01:50:10;;;;;;;9.33;9.03;;;-1.70;99.90;;;;;;6204279;23;20210;-85
2023/01/29 01:52:48;;;;;;;9.00;8.80;;;-1.80;99.90;;;;;;6199108;23;20211;-86
2023/01/29 01:55:27;;;;;;;8.80;8.60;;;-1.80;99.90;;;;;;6197732;23;20191;-86
2023/01/29 01:58:13;;;;;;;8.83;8.63;;;-1.90;99.90;;;;;;6198176;23;20217;-85
2023/01/29 02:00:45;;;;;;;8.73;8.53;;;-1.90;99.90;;;;;;6197899;23;20201;-85
2023/01/29 02:12:09;;;;;;;8.90;8.70;;;-1.90;99.90;;;;;;6197895;23;20207;-85
2023/01/29 02:14:46;;;;;;;9.00;8.80;;;-1.80;99.90;;;;;;6198051;23;20252;-85
2023/01/29 02:17:26;;;;;;;8.90;8.70;;;-1.80;99.90;;;;;;6197355;23;20205;-85
2023/01/29 02:20:12;;;;;;;8.90;8.70;;;-1.90;99.90;;;;;;6197786;23;20191;-86
2023/01/29 02:23:08;;;;;;;8.93;8.73;;;-1.80;99.90;;;;;;6197231;23;20203;-85
2023/01/29 02:32:34;;;;;;;;;;;;;;;;;;;;;
2023/01/29 02:35:31;;;;;;;9.20;8.90;;;-1.90;99.90;;;;;;6197686;23;20208;-86
2023/01/29 02:38:14;;;;;;;8.50;8.30;;;-2.00;99.90;;;;;;6198042;23;20184;-85
2023/01/29 02:40:54;;;;;;;8.70;8.50;;;-2.00;99.90;;;;;;6197439;23;20204;-85
2023/01/29 02:43:42;;;;;;;8.80;8.60;;;-1.90;99.90;;;;;;6197331;23;20204;-85
2023/01/29 02:46:21;;;;;;;8.97;8.77;;;-1.90;99.90;;;;;;6197616;23;20276;-85
2023/01/29 02:48:59;;;;;;;8.87;8.67;;;-1.80;99.90;;;;;;6197998;23;20193;-85
2023/01/29 02:51:54;;;;;;;8.70;8.50;;;-1.80;99.90;;;;;;6206867;23;20191;-85
2023/01/29 02:54:40;;;;;;;8.63;8.43;;;-1.80;99.90;;;;;;6201207;23;20275;-85
2023/01/29 02:57:20;;;;;;;8.50;8.30;;;-1.90;99.90;;;;;;6199514;23;20191;-85
2023/01/29 03:00:07;;;;;;;8.43;8.23;;;-1.90;99.90;;;;;;6197365;23;20260;-86
2023/01/29 03:03:01;;;;;;;8.83;8.63;;;-2.00;99.90;;;;;;6197482;23;20207;-85
2023/01/29 03:05:49;;;;;;;8.53;8.33;;;-1.90;99.90;;;;;;6196037;23;20313;-85
2023/01/29 03:08:42;;;;;;;8.27;8.07;;;-2.00;99.90;;;;;;6197466;23;20199;-85
2023/01/29 03:14:12;;;;;;;8.60;8.40;;;-2.00;99.90;;;;;;6196950;23;20243;-85
2023/01/29 03:16:47;;;;;;;8.53;8.33;;;-2.10;99.90;;;;;;6197354;23;20216;-85
2023/01/29 03:19:27;;;;;;;8.60;8.40;;;-2.10;99.90;;;;;;6197410;23;20191;-85
2023/01/29 03:22:06;;;;;;;8.90;8.70;;;-2.00;99.90;;;;;;6197719;23;20197;-85
2023/01/29 03:33:59;;;;;;;8.60;8.40;;;-2.00;99.90;;;;;;6197524;23;20197;-85
2023/01/29 03:36:44;;;;;;;8.73;8.53;;;-2.00;99.90;;;;;;6197112;23;20201;-85
2023/01/29 03:39:14;;;;;;;8.57;8.37;;;-2.00;99.90;;;;;;6197533;23;20202;-85
2023/01/29 03:44:55;;;;;;;8.50;8.30;;;-2.00;99.90;;;;;;6198070;23;20211;-85
2023/01/29 03:47:54;;;;;;;8.70;8.50;;;-2.00;99.90;;;;;;6197949;23;20198;-86
2023/01/29 03:50:38;;;;;;;8.70;8.50;;;-1.90;99.90;;;;;;6204844;23;20186;-85
2023/01/29 03:53:38;;;;;;;8.43;8.23;;;-1.70;99.90;;;;;;6212492;23;20202;-86
2023/01/29 03:56:12;;;;;;;8.43;8.23;;;-1.70;99.90;;;;;;6201107;23;20232;-85
2023/01/29 03:58:53;;;;;;;8.30;8.10;;;-1.70;99.90;;;;;;6199079;23;20244;-85
2023/01/29 04:01:37;;;;;;;8.70;8.50;;;-1.90;99.90;;;;;;6199475;23;20218;-85
2023/01/29 04:04:33;;;;;;;8.70;8.50;;;-2.10;99.90;;;;;;6198306;23;20263;-86
2023/01/29 04:07:09;;;;;;;8.50;8.30;;;-2.10;99.90;;;;;;6197898;23;20198;-85
2023/01/29 04:10:07;;;;;;;8.63;8.43;;;-2.10;99.90;;;;;;6199000;23;20207;-85
2023/01/29 04:12:44;;;;;;;8.60;8.40;;;-2.00;99.90;;;;;;6200058;23;20226;-85
2023/01/29 04:15:15;;;;;;;8.47;8.27;;;-1.90;99.90;;;;;;6199251;23;20669;-84
2023/01/29 04:21:07;;;;;;;8.77;8.57;;;-1.80;99.90;;;;;;6195610;23;20194;-85
2023/01/29 04:23:36;;;;;;;8.70;8.50;;;-1.70;99.90;;;;;;6197833;23;20265;-85
2023/01/29 04:26:58;;;;;;;8.53;8.33;;;-1.60;99.90;;;;;;6197115;23;20214;-85
2023/01/29 04:29:55;;;;;;;8.50;8.30;;;-1.60;99.90;;;;;;6197220;23;20724;-86
2023/01/29 04:32:32;;;;;;;8.57;8.37;;;-1.70;99.90;;;;;;6197048;23;20261;-85
2023/01/29 04:35:29;;;;;;;8.80;8.60;;;-1.70;99.90;;;;;;6197648;23;20537;-85
2023/01/29 04:38:15;;;;;;;8.50;8.30;;;-1.80;99.90;;;;;;6197770;23;20281;-85
2023/01/29 04:40:56;;;;;;;8.70;8.50;;;-1.80;99.90;;;;;;6197709;23;20214;-84
2023/01/29 04:43:42;;;;;;;8.97;8.77;;;-1.80;99.90;;;;;;6197724;23;20214;-85
2023/01/29 04:49:15;;;;;;;8.33;8.13;;;-2.00;99.90;;;;;;6197718;23;20208;-84
2023/01/29 04:52:12;;;;;;;8.50;8.30;;;-2.10;99.90;;;;;;6197479;23;20210;-85
2023/01/29 04:55:08;;;;;;;8.60;8.40;;;-2.00;99.90;;;;;;6196595;23;20243;-84
2023/01/29 04:57:47;;;;;;;8.60;8.40;;;-1.90;99.90;;;;;;6197561;23;20215;-85
2023/01/29 05:00:27;;;;;;;8.63;8.43;;;-1.80;99.90;;;;;;6197352;23;20679;-85
2023/01/29 05:03:12;;;;;;;8.70;8.50;;;-1.80;99.90;;;;;;6196942;23;20202;-85
2023/01/29 05:06:08;;;;;;;8.63;8.43;;;-1.70;99.90;;;;;;6197152;23;20209;-85
2023/01/29 05:08:39;;;;;;;8.73;8.53;;;-1.60;99.90;;;;;;6198969;23;20201;-85
2023/01/29 05:11:10;;;;;;;9.00;8.80;;;-1.60;99.90;;;;;;6198299;23;20201;-85
2023/01/29 05:13:42;;;;;;;8.63;8.43;;;-1.70;99.90;;;;;;6197628;23;20209;-85
2023/01/29 05:19:28;;;;;;;8.57;8.37;;;-1.70;99.90;;;;;;6203901;23;20195;-85
2023/01/29 05:22:25;;;;;;;9.20;8.90;;;-1.70;99.90;;;;;;6212445;23;20201;-84
2023/01/29 05:25:03;;;;;;;8.60;8.40;;;-1.70;99.90;;;;;;6200735;23;20273;-84
2023/01/29 05:30:28;;;;;;;8.70;8.50;;;-1.70;99.90;;;;;;6210599;23;20180;-85
2023/01/29 05:33:07;;;;;;;9.20;8.90;;;-1.70;99.90;;;;;;6210263;23;20205;-85
2023/01/29 05:35:39;;;;;;;8.40;8.20;;;-1.70;99.90;;;;;;6209550;23;20194;-84
2023/01/29 05:38:06;;;;;;;8.90;8.70;;;-1.80;99.90;;;;;;6220225;23;20180;-84
2023/01/29 05:40:46;;;;;;;8.70;8.50;;;-1.80;99.90;;;;;;6210939;23;20198;-85
2023/01/29 05:43:22;;;;;;;8.90;8.70;;;-1.80;99.90;;;;;;6204128;23;20201;-84
2023/01/29 05:46:03;;;;;;;8.80;8.60;;;-1.90;99.90;;;;;;6208597;23;20219;-85
2023/01/29 05:48:54;;;;;;;8.60;8.40;;;-1.90;99.90;;;;;;6209237;23;20883;-85
2023/01/29 05:51:30;;;;;;;8.70;8.50;;;-1.90;99.90;;;;;;6201450;23;20289;-85
2023/01/29 05:54:02;;;;;;;9.00;8.80;;;-1.90;99.90;;;;;;6213554;23;20201;-84
2023/01/29 05:56:59;;;;;;;8.63;8.43;;;-1.90;99.90;;;;;;6208388;23;20226;-85
2023/01/29 05:59:30;;;;;;;8.80;8.60;;;-1.90;99.90;;;;;;6212957;23;20209;-85
2023/01/29 06:01:58;;;;;;;8.80;8.60;;;-1.90;99.90;;;;;;6216328;23;20194;-84
2023/01/29 06:04:49;;;;;;;8.77;8.57;;;-2.00;99.90;;;;;;6207804;23;20227;-85
2023/01/29 06:07:22;;;;;;;9.00;8.80;;;-2.10;99.90;;;;;;6199699;23;20567;-85
2023/01/29 06:09:51;;;;;;;8.90;8.70;;;-2.10;99.90;;;;;;6201173;23;20331;-86
2023/01/29 06:12:21;;;;;;;8.70;8.50;;;-2.10;99.90;;;;;;6202806;23;20207;-84
2023/01/29 06:14:50;;;;;;;9.13;8.83;;;-2.10;99.90;;;;;;6199068;23;20199;-84
2023/01/29 06:17:23;;;;;;;9.30;9.00;;;-2.20;99.90;;;;;;6200931;23;20276;-83
2023/01/29 06:20:14;;;;;;;8.90;8.70;;;-2.20;99.90;;;;;;6198148;23;20199;-84
2023/01/29 06:22:47;;;;;;;9.20;8.90;;;-2.20;99.90;;;;;;6198149;23;20209;-87
2023/01/29 06:25:15;;;;;;;9.10;8.80;;;-2.20;99.90;;;;;;6197336;23;20662;-84
2023/01/29 06:27:46;;;;;;;8.80;8.60;;;-2.20;99.90;;;;;;6197991;23;20258;-84
2023/01/29 06:30:14;;;;;;;8.97;8.77;;;-2.20;99.90;;;;;;6197608;23;20214;-84
2023/01/29 06:32:45;;;;;;;8.80;8.60;;;-2.40;99.90;;;;;;6197811;23;20317;-84
2023/01/29 06:35:16;;;;;;;8.80;8.60;;;-2.30;99.90;;;;;;6201896;23;20295;-85
2023/01/29 06:38:10;;;;;;;8.93;8.73;;;-2.30;99.90;;;;;;6197624;23;20191;-85
2023/01/29 06:40:39;;;;;;;9.20;8.90;;;-2.20;99.90;;;;;;6198364;23;20209;-85
2023/01/29 08:44:00;;;;;;;;;;;;;;;;;;;;;
2023/01/29 08:52:02;;;;;;;;;;;;;;;;;;;;;
2023/01/29 10:08:01;;;;;;;;;;;;;;;;;;;;;
2023/01/29 12:44:07;;;;;;;9.40;9.10;;;1.40;99.90;;;;;;6225984;22;20213;-85
2023/01/29 12:46:43;;;;;;;9.50;9.20;;;1.40;99.90;;;;;;6227754;22;20230;-86
2023/01/29 12:49:17;;;;;;;9.57;9.27;;;1.30;99.90;;;;;;6228719;22;20257;-86
2023/01/29 12:51:57;;;;;;;9.80;9.50;;;1.40;99.90;;;;;;6229230;23;20195;-85
2023/01/29 12:54:37;;;;;;;9.83;9.53;;;1.40;99.90;;;;;;6228798;22;20206;-85
2023/01/29 12:57:18;;;;;;;9.77;9.47;;;1.50;99.90;;;;;;6229639;23;20255;-85
2023/01/29 13:00:00;;;;;;;9.93;9.63;;;1.80;99.90;;;;;;6228803;23;20315;-86
2023/01/29 13:02:42;;;;;;;10.07;9.77;;;2.10;99.90;;;;;;6233040;23;20205;-87
2023/01/29 13:08:09;;;;;;;9.80;9.50;;;2.80;99.90;;;;;;6235225;23;20271;-84
2023/01/29 13:10:44;;;;;;;9.73;9.43;;;3.00;99.90;;;;;;6230866;22;20250;-88
2023/01/29 13:13:23;;;;;;;9.60;9.30;;;3.10;99.90;;;;;;6230243;22;20206;-85
2023/01/29 13:16:14;;;;;;;9.70;9.40;;;3.30;99.90;;;;;;6229120;23;20217;-84
2023/01/29 13:18:48;;;;;;;9.30;9.00;;;3.30;99.90;;;;;;6228879;23;20308;-87
2023/01/29 13:24:42;;;;;;;9.40;9.10;;;2.90;99.90;;;;;;6225452;22;20209;-87
2023/01/29 13:27:30;;;;;;;9.60;9.30;;;2.40;99.90;;;;;;6229505;23;20195;-85
2023/01/29 13:30:08;;;;;;;9.40;9.10;;;2.10;99.90;;;;;;6228599;23;20191;-85
2023/01/29 13:32:43;;;;;;;9.50;9.20;;;1.80;99.90;;;;;;6229369;23;20202;-86
2023/01/29 13:35:15;;;;;;;9.60;9.30;;;1.60;99.90;;;;;;6228119;22;20238;-86
2023/01/29 13:40:59;;;;;;;;;;;;;;;;;;;;;
2023/01/29 13:43:44;;;;;;;9.57;9.27;;;1.40;99.90;;;;;;6228465;22;20203;-87
2023/01/29 13:46:28;;;;;;;9.40;9.10;;;1.20;99.90;;;;;;6228982;23;20195;-87
2023/01/29 13:49:28;;;;;;;9.33;9.03;;;1.00;99.90;;;;;;6229691;23;20207;-86
2023/01/29 13:52:22;;;;;;;9.60;9.30;;;1.00;99.90;;;;;;6231472;22;20226;-86
2023/01/29 13:55:00;;;;;;;9.60;9.30;;;1.00;99.90;;;;;;6231341;22;20253;-88
2023/01/29 13:58:01;;;;;;;9.80;9.50;;;1.10;99.90;;;;;;6231665;23;20198;-86
2023/01/29 14:00:52;;;;;;;9.50;9.20;;;1.20;99.90;;;;;;6230600;23;20225;-85
2023/01/29 14:03:57;;;;;;;9.93;9.63;;;1.40;99.90;;;;;;6231923;22;20261;-87
2023/01/29 14:06:51;;;;;;;9.90;9.60;;;1.70;99.90;;;;;;6231396;22;20201;-87
2023/01/29 14:10:16;;;;;;;9.40;9.10;;;2.00;99.90;;;;;;6230238;23;20273;-87
2023/01/29 14:12:52;;;;;;;9.53;9.23;;;2.30;99.90;;;;;;6230099;23;20199;-86
2023/01/29 14:15:41;;;;;;;9.33;9.03;;;2.30;99.90;;;;;;6229895;23;20213;-87
2023/01/29 14:21:39;;;;;;;9.70;9.40;;;2.50;99.90;;;;;;6227888;22;20210;-86
2023/01/29 14:24:19;;;;;;;9.27;8.97;;;2.60;99.90;;;;;;6228922;22;20230;-86
2023/01/29 14:27:04;;;;;;;9.60;9.30;;;2.80;99.90;;;;;;6229657;23;20206;-85
2023/01/29 14:29:43;;;;;;;9.90;9.60;;;3.00;99.90;;;;;;6229642;23;20191;-87
2023/01/29 14:32:30;;;;;;;9.80;9.50;;;3.10;99.90;;;;;;6228772;23;20272;-85
2023/01/29 14:35:18;;;;;;;9.77;9.47;;;3.20;99.90;;;;;;6228733;22;20226;-85
2023/01/29 14:38:05;;;;;;;9.70;9.40;;;3.00;99.90;;;;;;6230387;23;20277;-85
2023/01/29 14:40:42;;;;;;;9.60;9.30;;;2.90;99.90;;;;;;6229223;23;20199;-85
2023/01/29 14:43:19;;;;;;;9.63;9.33;;;3.00;99.90;;;;;;6229069;22;20226;-85
2023/01/29 14:45:52;;;;;;;9.20;8.90;;;3.20;99.90;;;;;;6230498;22;20210;-85
2023/01/29 14:48:47;;;;;;;9.20;8.90;;;3.20;99.90;;;;;;6229444;23;20203;-85
2023/01/29 14:51:17;;;;;;;9.30;9.00;;;3.20;99.90;;;;;;6229863;23;20698;-86
2023/01/29 14:54:04;;;;;;;9.10;8.80;;;3.00;99.90;;;;;;6229456;22;20206;-86
2023/01/29 14:56:54;;;;;;;9.30;9.00;;;2.80;99.90;;;;;;6229496;23;20218;-85
2023/01/29 14:59:29;;;;;;;9.50;9.20;;;2.50;99.90;;;;;;6230752;23;20187;-85
2023/01/29 15:02:16;;;;;;;9.40;9.10;;;2.20;99.90;;;;;;6230514;23;20183;-84
2023/01/29 15:04:57;;;;;;;9.30;9.00;;;1.90;99.90;;;;;;6231324;22;20226;-85
2023/01/29 15:07:43;;;;;;;9.60;9.30;;;1.80;99.90;;;;;;6229730;23;20254;-86
2023/01/29 15:10:20;;;;;;;9.47;9.17;;;1.70;99.90;;;;;;6227774;23;20218;-85
2023/01/29 15:12:58;;;;;;;9.60;9.30;;;1.70;99.90;;;;;;6229023;23;20214;-85
2023/01/29 15:15:36;;;;;;;9.50;9.20;;;1.60;99.90;;;;;;6234543;23;20197;-84
2023/01/29 15:18:16;;;;;;;9.50;9.20;;;1.60;99.90;;;;;;6245313;23;20202;-84
2023/01/29 15:20:44;;;;;;;9.23;8.93;;;1.60;99.90;;;;;;6231169;23;20194;-85
2023/01/29 15:23:43;;;;;;;9.37;9.07;;;1.70;99.90;;;;;;6232384;22;20215;-85
2023/01/29 15:26:14;;;;;;;9.10;8.80;;;1.60;99.90;;;;;;6235769;23;20195;-84
2023/01/29 15:28:49;;;;;;;9.20;8.90;;;1.60;99.90;;;;;;6242545;23;20210;-84
2023/01/29 15:31:30;;;;;;;9.03;8.73;;;1.60;99.90;;;;;;6229877;23;20218;-85
2023/01/29 15:34:06;;;;;;;9.13;8.83;;;1.50;99.90;;;;;;6230364;22;20205;-86
2023/01/29 15:36:42;;;;;;;9.23;8.93;;;1.40;99.90;;;;;;6228378;23;20190;-87
2023/01/29 15:39:20;;;;;;;8.70;8.50;;;1.40;99.90;;;;;;6229898;23;20187;-87
2023/01/29 15:41:51;;;;;;;9.13;8.87;;;1.40;99.90;;;;;;6230018;23;20263;-87
2023/01/29 15:44:28;;;;;;;9.30;9.00;;;1.30;99.90;;;;;;6230643;22;20203;-88
2023/01/29 15:46:59;;;;;;;9.20;8.90;;;1.30;99.90;;;;;;6228796;23;20261;-87
2023/01/29 15:49:37;;;;;;;9.40;9.10;;;1.30;99.90;;;;;;6229704;23;20246;-87
2023/01/29 15:52:13;;;;;;;9.20;8.90;;;1.20;99.90;;;;;;6230866;23;20195;-88
2023/01/29 15:54:42;;;;;;;9.50;9.20;;;1.10;99.90;;;;;;6230389;22;20213;-88
2023/01/29 15:57:34;;;;;;;9.70;9.40;;;1.10;99.90;;;;;;6230145;23;20203;-87
2023/01/29 16:02:51;;;;;;;9.80;9.50;;;1.10;99.90;;;;;;6230155;23;20191;-88
2023/01/29 16:05:26;;;;;;;9.50;9.20;;;1.00;99.90;;;;;;6228951;23;20198;-88
2023/01/29 16:08:02;;;;;;;9.50;9.20;;;0.90;99.90;;;;;;6230696;23;20268;-88
2023/01/29 16:10:33;;;;;;;9.30;9.00;;;0.90;99.90;;;;;;6230730;23;20195;-87
2023/01/29 16:13:04;;;;;;;9.27;8.97;;;0.90;99.90;;;;;;6231185;22;20286;-87
2023/01/29 16:15:40;;;;;;;9.23;8.93;;;0.90;99.90;;;;;;6231421;22;20275;-88
2023/01/29 16:18:38;;;;;;;9.20;8.90;;;0.90;99.90;;;;;;6231523;22;20225;-88
2023/01/29 16:21:15;;;;;;;9.50;9.20;;;0.80;99.90;;;;;;6233563;23;20199;-88
2023/01/29 16:23:54;;;;;;;9.57;9.27;;;0.80;99.90;;;;;;6231423;22;20195;-88
2023/01/29 16:26:30;;;;;;;9.27;8.97;;;0.80;99.90;;;;;;6234475;23;20209;-87
2023/01/29 16:29:13;;;;;;;9.80;9.50;;;0.70;99.90;;;;;;6236183;23;20198;-87
2023/01/29 16:31:47;;;;;;;9.27;8.97;;;0.60;99.90;;;;;;6237782;23;20201;-87
2023/01/29 16:34:27;;;;;;;9.10;8.80;;;0.60;99.90;;;;;;6236124;22;20202;-86
2023/01/29 16:36:58;;;;;;;9.40;9.10;;;0.60;99.90;;;;;;6233316;23;20194;-88
2023/01/29 16:39:34;;;;;;;8.60;8.40;;;0.60;99.90;;;;;;6233125;23;20225;-85
2023/01/29 16:42:30;;;;;;;9.10;8.80;;;0.50;99.90;;;;;;6230554;23;20201;-85
2023/01/29 16:45:02;;;;;;;9.10;8.80;;;0.40;99.90;;;;;;6228718;22;20207;-83
2023/01/29 16:47:40;;;;;;;9.17;8.87;;;0.30;99.90;;;;;;6233007;23;20233;-84
2023/01/29 16:50:36;;;;;;;8.90;8.70;;;0.30;99.90;;;;;;6229548;23;20187;-85
2023/01/29 16:53:15;;;;;;;9.20;8.90;;;0.20;99.90;;;;;;6231936;22;20209;-86
2023/01/29 16:55:51;;;;;;;9.20;8.90;;;0.20;99.90;;;;;;6231725;23;20195;-86
2023/01/29 16:58:22;;;;;;;9.20;8.90;;;0.10;99.90;;;;;;6232627;23;20195;-86
2023/01/29 17:00:58;;;;;;;9.17;8.87;;;0.00;99.90;;;;;;6230466;23;20198;-86
2023/01/29 17:06:32;;;;;;;9.30;9.00;;;-0.10;99.90;;;;;;6233589;23;20222;-88
2023/01/29 17:09:02;;;;;;;9.30;9.00;;;-0.30;99.90;;;;;;6239602;23;20229;-86
2023/01/29 17:11:43;;;;;;;9.30;9.00;;;-0.40;99.90;;;;;;6232728;23;20218;-86
2023/01/29 17:14:19;;;;;;;9.20;8.90;;;-0.40;99.90;;;;;;6231335;22;20204;-87
2023/01/29 17:16:58;;;;;;;9.33;9.03;;;-0.50;99.90;;;;;;6228390;23;20228;-86
2023/01/29 17:19:34;;;;;;;9.40;9.10;;;-0.60;99.90;;;;;;6229074;23;20215;-85
2023/01/29 17:22:07;;;;;;;9.43;9.13;;;-0.60;99.90;;;;;;6230071;23;20191;-86
2023/01/29 17:24:42;;;;;;;9.20;8.90;;;-0.70;99.90;;;;;;6229337;22;20195;-86
2023/01/29 17:27:21;;;;;;;8.87;8.67;;;-0.70;99.90;;;;;;6229734;22;20213;-86
2023/01/29 17:29:49;;;;;;;8.83;8.63;;;-0.80;99.90;;;;;;6229572;23;20297;-86
2023/01/29 17:32:19;;;;;;;8.90;8.70;;;-0.80;99.90;;;;;;6228952;23;20528;-85
2023/01/29 17:34:51;;;;;;;9.10;8.80;;;-0.90;99.90;;;;;;6229786;22;20202;-86
2023/01/29 17:37:21;;;;;;;9.30;9.00;;;-0.90;99.90;;;;;;6231416;23;20190;-89
2023/01/29 17:39:51;;;;;;;9.03;8.77;;;-0.90;99.90;;;;;;6229073;23;20237;-85
2023/01/29 17:42:20;;;;;;;8.80;8.60;;;-0.90;99.90;;;;;;6229221;23;20257;-86
2023/01/29 17:44:47;;;;;;;8.97;8.73;;;-0.90;99.90;;;;;;6228736;22;20201;-88
2023/01/29 17:47:15;;;;;;;9.00;8.70;;;-0.80;99.90;;;;;;6228783;23;20194;-85
2023/01/29 17:49:46;;;;;;;8.97;8.70;;;-0.80;99.90;;;;;;6229265;23;20897;-85
2023/01/29 17:52:17;;;;;;;8.80;8.60;;;-0.80;99.90;;;;;;6230836;23;20187;-87
2023/01/29 17:55:31;;;;;;;8.83;8.63;;;-0.70;99.90;;;;;;6231009;22;20210;-86
2023/01/29 17:57:58;;;;;;;9.20;8.90;;;-0.70;99.90;;;;;;6224624;23;20204;-86
2023/01/29 18:00:27;;;;;;;9.10;8.80;;;-0.70;99.90;;;;;;6232360;23;20213;-87
2023/01/29 18:02:59;;;;;;;9.30;9.00;;;-0.70;99.90;;;;;;6230961;22;20263;-87
2023/01/29 18:08:21;;;;;;;9.10;8.80;;;-0.60;99.90;;;;;;6230168;23;20217;-87
2023/01/29 18:10:51;;;;;;;8.80;8.60;;;-0.50;99.90;;;;;;6231225;23;20206;-86
2023/01/29 18:13:22;;;;;;;8.90;8.70;;;-0.50;99.90;;;;;;6230343;22;20217;-87
2023/01/29 18:15:56;;;;;;;9.10;8.80;;;-0.60;99.90;;;;;;6230274;23;20253;-87
2023/01/29 18:18:28;;;;;;;8.83;8.63;;;-0.50;99.90;;;;;;6230410;23;20200;-86
2023/01/29 18:20:57;;;;;;;9.20;8.90;;;-0.50;99.90;;;;;;6228664;23;20205;-86
2023/01/29 18:23:35;;;;;;;8.77;8.57;;;-0.50;99.90;;;;;;6228996;22;20233;-87
2023/01/29 18:26:06;;;;;;;8.90;8.70;;;-0.50;99.90;;;;;;6227782;23;20281;-85
2023/01/29 18:28:35;;;;;;;9.20;8.90;;;-0.50;99.90;;;;;;6229590;23;20258;-87
2023/01/29 18:31:04;;;;;;;9.10;8.80;;;-0.50;99.90;;;;;;6228177;23;20226;-86
2023/01/29 18:33:38;;;;;;;8.87;8.67;;;-0.50;99.90;;;;;;6231370;22;20226;-87
2023/01/29 18:36:08;;;;;;;8.70;8.50;;;-0.50;99.90;;;;;;6228119;23;20204;-87
2023/01/29 18:38:37;;;;;;;9.10;8.80;;;-0.50;99.90;;;;;;6228788;23;20209;-86
2023/01/29 18:41:14;;;;;;;9.10;8.80;;;-0.60;99.90;;;;;;6228823;23;20218;-86
2023/01/29 18:43:44;;;;;;;9.03;8.80;;;-0.60;99.90;;;;;;6232303;22;20205;-87
2023/01/29 18:46:12;;;;;;;8.73;8.53;;;-0.60;99.90;;;;;;6228580;23;20202;-87
2023/01/29 18:48:42;;;;;;;9.03;8.73;;;-0.60;99.90;;;;;;6229046;23;20237;-87
2023/01/29 18:51:13;;;;;;;9.33;9.03;;;-0.60;99.90;;;;;;6229237;23;20228;-86
2023/01/29 18:56:37;;;;;;;9.10;8.80;;;-0.60;99.90;;;;;;6229178;23;20199;-86
2023/01/29 18:59:15;;;;;;;8.80;8.60;;;-0.60;99.90;;;;;;6228250;23;20228;-86
2023/01/29 19:01:43;;;;;;;8.70;8.50;;;-0.70;99.90;;;;;;6228913;23;20197;-86
2023/01/29 19:04:13;;;;;;;8.70;8.50;;;-0.70;99.90;;;;;;6228203;22;20205;-85
2023/01/29 19:06:43;;;;;;;9.10;8.80;;;-0.70;99.90;;;;;;6226297;23;20209;-87
2023/01/29 19:09:15;;;;;;;8.77;8.57;;;-0.70;99.90;;;;;;6226691;23;20210;-86
2023/01/29 19:11:53;;;;;;;8.77;8.57;;;-0.80;99.90;;;;;;6228423;23;20244;-87
2023/01/29 19:14:22;;;;;;;8.50;8.30;;;-0.80;99.90;;;;;;6227467;22;20260;-85
2023/01/29 19:16:50;;;;;;;8.80;8.60;;;-0.80;99.90;;;;;;6226972;23;20210;-87
2023/01/29 19:19:18;;;;;;;9.03;8.80;;;-0.90;99.90;;;;;;6227785;23;20343;-87
2023/01/29 19:21:47;;;;;;;9.20;8.90;;;-0.90;99.90;;;;;;6225396;23;20296;-87
2023/01/29 19:24:45;;;;;;;9.20;8.90;;;-0.90;99.90;;;;;;6226962;22;20223;-88
2023/01/29 19:27:15;;;;;;;9.20;8.90;;;-1.00;99.90;;;;;;6226608;23;20194;-89
2023/01/29 19:29:49;;;;;;;8.77;8.57;;;-1.10;99.90;;;;;;6227398;23;20261;-86
2023/01/29 19:32:30;;;;;;;8.90;8.70;;;-1.20;99.90;;;;;;6226934;23;20213;-87
2023/01/29 19:35:01;;;;;;;8.80;8.60;;;-1.20;99.90;;;;;;6229889;22;20279;-87
2023/01/29 19:37:32;;;;;;;8.83;8.63;;;-1.30;99.90;;;;;;6230629;23;20189;-86
2023/01/29 19:40:16;;;;;;;8.97;8.70;;;-1.30;99.90;;;;;;6231603;23;20193;-87
2023/01/29 19:43:19;;;;;;;;;;;;;;;;;;;;;
2023/01/29 19:46:04;;;;;;;8.83;8.63;;;-1.40;99.90;;;;;;6234630;23;20200;-88
2023/01/29 19:48:37;;;;;;;9.10;8.80;;;-1.40;99.90;;;;;;6233301;23;20201;-87
2023/01/29 19:51:31;;;;;;;9.10;8.80;;;-1.40;99.90;;;;;;6235454;23;20196;-85
2023/01/29 19:54:02;;;;;;;8.93;8.73;;;-1.50;99.90;;;;;;6236510;22;20201;-85
2023/01/29 19:56:42;;;;;;;9.17;8.87;;;-1.60;99.90;;;;;;6231189;23;20201;-86
2023/01/29 20:01:58;;;;;;;8.87;8.67;;;-1.80;99.90;;;;;;6230562;23;20202;-86
2023/01/29 20:04:26;;;;;;;9.23;8.93;;;-1.90;99.90;;;;;;6229450;22;20209;-86
2023/01/29 20:07:04;;;;;;;9.40;9.10;;;-2.00;99.90;;;;;;6229323;23;20226;-86
2023/01/29 20:09:35;;;;;;;9.30;9.00;;;-2.10;99.90;;;;;;6230056;22;20204;-83
2023/01/29 20:12:23;;;;;;;9.00;8.70;;;-2.10;99.90;;;;;;6230604;23;20228;-84
2023/01/29 20:15:09;;;;;;;9.23;8.93;;;-2.20;99.90;;;;;;6229355;22;20257;-85
2023/01/29 20:17:37;;;;;;;9.00;8.70;;;-2.30;99.90;;;;;;6227612;23;20238;-84
2023/01/29 20:20:07;;;;;;;9.10;8.80;;;-2.30;99.90;;;;;;6227914;23;20278;-84
2023/01/29 20:22:36;;;;;;;9.03;8.73;;;-2.30;99.90;;;;;;6227630;22;20208;-84
2023/01/29 20:25:15;;;;;;;9.40;9.10;;;-2.30;99.90;;;;;;6226669;22;20277;-85
2023/01/29 20:27:54;;;;;;;9.20;8.90;;;-2.40;99.90;;;;;;6227357;23;20197;-85
2023/01/29 20:30:30;;;;;;;9.10;8.80;;;-2.40;99.90;;;;;;6228229;23;20213;-86
2023/01/29 20:33:04;;;;;;;9.03;8.73;;;-2.40;99.90;;;;;;6228663;22;20229;-86
2023/01/29 20:38:30;;;;;;;8.83;8.63;;;-2.50;99.90;;;;;;6227879;23;20195;-84
2023/01/29 20:41:06;;;;;;;9.10;8.80;;;-2.40;99.90;;;;;;6229184;23;20210;-85
2023/01/29 20:43:38;;;;;;;9.30;9.00;;;-2.40;99.90;;;;;;6228678;22;20238;-84
2023/01/29 20:46:12;;;;;;;9.10;8.80;;;-2.40;99.90;;;;;;6229654;23;20198;-85
2023/01/29 20:48:42;;;;;;;9.10;8.80;;;-2.40;99.90;;;;;;6230881;23;20248;-87
2023/01/29 20:51:20;;;;;;;9.20;8.90;;;-2.30;99.90;;;;;;6233977;23;20205;-84
2023/01/29 20:54:06;;;;;;;9.10;8.80;;;-2.30;99.90;;;;;;6234167;22;20265;-85
2023/01/29 20:56:45;;;;;;;9.00;8.70;;;-2.20;99.90;;;;;;6231765;23;20229;-86
2023/01/29 20:59:17;;;;;;;8.87;8.63;;;-2.20;99.90;;;;;;6231974;23;20191;-85
2023/01/29 21:01:48;;;;;;;8.80;8.60;;;-2.20;99.90;;;;;;6228222;23;20195;-87
2023/01/29 21:04:15;;;;;;;9.00;8.70;;;-2.20;99.90;;;;;;6229617;22;20253;-84
2023/01/29 21:06:46;;;;;;;9.40;9.10;;;-2.20;99.90;;;;;;6232798;23;20209;-87
2023/01/29 21:09:16;;;;;;;9.30;9.00;;;-2.20;99.90;;;;;;6230369;23;20202;-86
2023/01/29 21:11:53;;;;;;;9.40;9.10;;;-2.20;99.90;;;;;;6233949;23;20196;-86
2023/01/29 21:14:24;;;;;;;9.33;9.03;;;-2.20;99.90;;;;;;6239164;22;20199;-85